createdAt,value
2022-08-19T00:00:30.147Z,100641.41
2022-08-19T00:02:59.359Z,100634.94
2022-08-19T00:05:28.596Z,100643.00
2022-08-19T00:07:57.854Z,100631.56
2022-08-19T00:10:27.197Z,100639.63
2022-08-19T00:12:56.407Z,100638.31
2022-08-19T00:15:26.291Z,100643.53
2022-08-19T00:17:56.517Z,100616.22
2022-08-19T00:20:25.957Z,100624.03
2022-08-19T00:22:56.785Z,100621.44
2022-08-19T00:25:30.254Z,100608.44
2022-08-19T00:28:01.186Z,100612.59
2022-08-19T00:30:30.573Z,100610.00
2022-08-19T00:32:59.978Z,100602.19
2022-08-19T00:35:29.516Z,100607.66
2022-08-19T00:37:58.631Z,100595.97
2022-08-19T00:40:28.509Z,100594.69
2022-08-19T00:42:57.943Z,100595.94
2022-08-19T00:45:29.983Z,100595.44
2022-08-19T00:47:59.276Z,100603.47
2022-08-19T00:50:28.287Z,100620.88
2022-08-19T00:52:57.666Z,100606.31
2022-08-19T00:55:30.679Z,100600.09
2022-08-19T00:58:06.805Z,100599.00
2022-08-19T01:00:39.049Z,100605.50
2022-08-19T01:03:13.693Z,100584.25
2022-08-19T01:05:46.316Z,100570.94
2022-08-19T01:08:17.979Z,100572.78
2022-08-19T01:10:54.732Z,100573.50
2022-08-19T01:13:27.993Z,100573.00
2022-08-19T01:16:04.985Z,100582.66
2022-08-19T01:18:37.480Z,100598.53
2022-08-19T01:21:12.953Z,100593.59
2022-08-19T01:23:44.884Z,100595.47
2022-08-19T01:26:19.703Z,100598.00
2022-08-19T01:28:52.229Z,100600.88
2022-08-19T01:31:28.347Z,100592.31
2022-08-19T01:33:59.870Z,100588.66
2022-08-19T01:36:33.500Z,100578.78
2022-08-19T01:39:05.679Z,100579.06
2022-08-19T01:41:35.062Z,100570.25
2022-08-19T01:44:18.871Z,100558.34
2022-08-19T01:46:51.230Z,100566.34
2022-08-19T01:49:23.323Z,100575.19
2022-08-19T01:51:53.260Z,100581.41
2022-08-19T01:54:27.786Z,100591.56
2022-08-19T01:57:05.913Z,100601.69
2022-08-19T01:59:37.748Z,100591.56
2022-08-19T02:02:09.618Z,100592.06
2022-08-19T02:04:42.255Z,100597.50
2022-08-19T02:10:17.968Z,100602.97
2022-08-19T02:12:47.636Z,100588.19
2022-08-19T02:15:17.020Z,100585.84
2022-08-19T02:17:46.149Z,100589.22
2022-08-19T02:20:15.611Z,100579.34
2022-08-19T02:22:46.048Z,100587.38
2022-08-19T02:25:16.476Z,100593.59
2022-08-19T02:27:45.723Z,100581.69
2022-08-19T02:30:18.336Z,100580.91
2022-08-19T02:32:47.761Z,100589.16
2022-08-19T02:35:16.768Z,100579.56
2022-08-19T02:38:05.141Z,100578.78
2022-08-19T02:40:37.835Z,100580.84
2022-08-19T02:43:09.394Z,100571.47
2022-08-19T02:45:41.663Z,100569.88
2022-08-19T02:48:14.925Z,100567.25
2022-08-19T02:50:56.951Z,100563.06
2022-08-19T02:53:30.030Z,100549.13
2022-08-19T02:55:59.526Z,100546.47
2022-08-19T02:58:28.642Z,100538.94
2022-08-19T03:00:59.391Z,100543.31
2022-08-19T03:03:28.985Z,100545.50
2022-08-19T03:06:19.603Z,100548.28
2022-08-19T03:08:51.482Z,100544.25
2022-08-19T03:11:34.300Z,100552.00
2022-08-19T03:14:19.814Z,100555.00
2022-08-19T03:17:18.536Z,100545.03
2022-08-19T03:19:52.847Z,100546.00
2022-08-19T03:22:38.990Z,100550.59
2022-08-19T03:25:08.404Z,100546.13
2022-08-19T03:27:40.309Z,100546.72
2022-08-19T03:30:11.686Z,100545.63
2022-08-19T03:32:45.282Z,100546.78
2022-08-19T03:35:14.783Z,100539.88
2022-08-19T03:37:44.447Z,100537.78
2022-08-19T03:40:23.781Z,100533.97
2022-08-19T03:42:53.697Z,100533.19
2022-08-19T03:45:28.674Z,100531.31
2022-08-19T03:48:01.503Z,100539.53
2022-08-19T03:50:31.271Z,100547.97
2022-08-19T03:53:02.926Z,100562.16
2022-08-19T03:55:38.917Z,100564.13
2022-08-19T03:58:14.184Z,100550.78
2022-08-19T04:00:59.157Z,100540.59
2022-08-19T04:03:33.601Z,100553.09
2022-08-19T04:06:26.313Z,100553.16
2022-08-19T04:09:04.637Z,100559.50
2022-08-19T04:11:48.887Z,100559.22
2022-08-19T04:14:25.092Z,100567.59
2022-08-19T04:17:03.104Z,100568.09
2022-08-19T04:19:43.407Z,100576.91
2022-08-19T04:22:13.464Z,100581.53
2022-08-19T04:24:44.137Z,100576.47
2022-08-19T04:27:14.699Z,100581.03
2022-08-19T04:29:51.838Z,100582.56
2022-08-19T04:32:29.244Z,100586.75
2022-08-19T04:35:32.622Z,100587.38
2022-08-19T04:38:29.214Z,100586.72
2022-08-19T04:41:20.260Z,100582.94
2022-08-19T04:43:53.022Z,100576.81
2022-08-19T04:46:40.592Z,100583.66
2022-08-19T04:49:18.710Z,100581.75
2022-08-19T04:51:53.128Z,100565.00
2022-08-19T04:54:37.402Z,100562.59
2022-08-19T04:57:11.663Z,100561.00
2022-08-19T04:59:41.575Z,100570.72
2022-08-19T05:02:11.953Z,100552.53
2022-08-19T05:04:41.335Z,100547.09
2022-08-19T05:07:11.898Z,100544.56
2022-08-19T05:09:57.026Z,100540.50
2022-08-19T05:12:30.555Z,100547.25
2022-08-19T05:15:00.972Z,100553.38
2022-08-19T05:17:33.535Z,100570.50
2022-08-19T05:20:25.870Z,100580.94
2022-08-19T05:22:55.460Z,100568.84
2022-08-19T05:25:27.453Z,100560.25
2022-08-19T05:27:56.745Z,100554.31
2022-08-19T05:30:37.620Z,100560.59
2022-08-19T05:33:15.084Z,100556.78
2022-08-19T05:35:44.151Z,100553.78
2022-08-19T05:38:13.682Z,100548.19
2022-08-19T05:40:43.285Z,100550.94
2022-08-19T05:43:12.835Z,100559.97
2022-08-19T05:45:43.845Z,100558.31
2022-08-19T05:48:14.606Z,100575.53
2022-08-19T05:50:44.079Z,100570.22
2022-08-19T05:53:14.150Z,100560.69
2022-08-19T05:55:43.171Z,100564.16
2022-08-19T05:58:12.337Z,100561.31
2022-08-19T06:00:42.069Z,100561.28
2022-08-19T06:03:14.600Z,100560.28
2022-08-19T06:05:51.532Z,100550.84
2022-08-19T06:08:34.393Z,100551.06
2022-08-19T06:11:18.250Z,100548.56
2022-08-19T06:13:59.741Z,100540.81
2022-08-19T06:16:30.306Z,100526.50
2022-08-19T06:19:02.890Z,100529.19
2022-08-19T06:21:32.819Z,100521.16
2022-08-19T06:24:02.106Z,100516.81
2022-08-19T06:26:34.656Z,100515.94
2022-08-19T06:29:05.776Z,100511.66
2022-08-19T06:31:37.009Z,100525.19
2022-08-19T06:34:08.547Z,100529.88
2022-08-19T06:36:43.833Z,100526.53
2022-08-19T06:39:34.659Z,100527.91
2022-08-19T06:42:09.126Z,100532.19
2022-08-19T06:44:48.128Z,100539.28
2022-08-19T06:47:25.271Z,100541.13
2022-08-19T06:50:05.325Z,100544.34
2022-08-19T06:52:38.351Z,100549.25
2022-08-19T06:55:08.658Z,100546.59
2022-08-19T06:57:38.064Z,100545.38
2022-08-19T07:00:13.028Z,100536.56
2022-08-19T07:02:48.200Z,100541.31
2022-08-19T07:05:25.078Z,100538.28
2022-08-19T07:07:54.280Z,100524.59
2022-08-19T07:10:27.523Z,100514.44
2022-08-19T07:12:56.584Z,100518.97
2022-08-19T07:15:29.015Z,100513.28
2022-08-19T07:17:58.339Z,100506.81
2022-08-19T07:20:28.353Z,100503.53
2022-08-19T07:22:58.063Z,100506.94
2022-08-19T07:25:32.222Z,100501.16
2022-08-19T07:28:02.444Z,100507.03
2022-08-19T07:30:32.039Z,100510.16
2022-08-19T07:33:03.885Z,100508.88
2022-08-19T07:35:34.035Z,100508.88
2022-08-19T07:38:04.967Z,100508.66
2022-08-19T07:40:34.160Z,100505.16
2022-08-19T07:43:03.345Z,100504.19
2022-08-19T07:45:35.298Z,100500.75
2022-08-19T07:48:05.925Z,100504.59
2022-08-19T07:50:35.533Z,100501.16
2022-08-19T07:53:04.750Z,100499.50
2022-08-19T07:55:42.171Z,100501.63
2022-08-19T07:58:16.084Z,100509.91
2022-08-19T08:00:56.153Z,100511.56
2022-08-19T08:03:44.655Z,100505.06
2022-08-19T08:06:34.126Z,100496.28
2022-08-19T08:09:13.217Z,100512.91
2022-08-19T08:12:01.992Z,100525.44
2022-08-19T08:14:44.004Z,100507.63
2022-08-19T08:17:16.870Z,100509.66
2022-08-19T08:20:01.498Z,100481.44
2022-08-19T08:22:49.840Z,100475.16
2022-08-19T08:25:24.432Z,100463.63
2022-08-19T08:27:55.327Z,100456.38
2022-08-19T08:30:27.420Z,100436.81
2022-08-19T08:33:02.528Z,100428.22
2022-08-19T08:35:32.038Z,100425.09
2022-08-19T08:38:01.276Z,100428.91
2022-08-19T08:40:40.285Z,100450.13
2022-08-19T08:43:34.545Z,100470.25
2022-08-19T08:46:12.280Z,100466.91
2022-08-19T08:48:52.607Z,100455.88
2022-08-19T08:51:34.546Z,100464.38
2022-08-19T08:54:09.875Z,100478.25
2022-08-19T08:56:45.304Z,100476.50
2022-08-19T08:59:34.433Z,100478.06
2022-08-19T09:02:03.752Z,100463.50
2022-08-19T09:04:33.055Z,100464.69
2022-08-19T09:07:39.806Z,100456.16
2022-08-19T09:10:34.781Z,100458.91
2022-08-19T09:13:28.105Z,100461.44
2022-08-19T09:16:16.888Z,100469.03
2022-08-19T09:18:48.957Z,100455.00
2022-08-19T09:21:22.929Z,100453.16
2022-08-19T09:23:55.676Z,100460.69
2022-08-19T09:26:47.515Z,100465.34
2022-08-19T09:29:17.718Z,100468.66
2022-08-19T09:31:46.861Z,100463.41
2022-08-19T09:34:21.566Z,100462.41
2022-08-19T09:36:56.997Z,100469.69
2022-08-19T09:39:26.219Z,100466.16
2022-08-19T09:42:06.625Z,100467.72
2022-08-19T09:44:46.261Z,100466.91
2022-08-19T09:47:17.130Z,100472.50
2022-08-19T09:49:50.765Z,100477.88
2022-08-19T09:52:19.967Z,100481.97
2022-08-19T09:54:51.883Z,100490.13
2022-08-19T09:57:21.207Z,100473.75
2022-08-19T09:59:50.441Z,100477.38
2022-08-19T10:02:22.426Z,100483.00
2022-08-19T10:05:09.846Z,100486.50
2022-08-19T10:07:39.747Z,100500.31
2022-08-19T10:10:11.210Z,100502.63
2022-08-19T10:12:41.827Z,100506.47
2022-08-19T10:15:11.413Z,100497.19
2022-08-19T10:17:40.738Z,100505.94
2022-08-19T10:20:17.325Z,100514.19
2022-08-19T10:22:46.383Z,100508.84
2022-08-19T10:25:21.070Z,100505.00
2022-08-19T10:27:51.380Z,100505.38
2022-08-19T10:30:20.974Z,100496.28
2022-08-19T10:32:50.258Z,100497.78
2022-08-19T10:35:22.108Z,100499.06
2022-08-19T10:37:57.256Z,100491.53
2022-08-19T10:40:28.645Z,100499.63
2022-08-19T10:42:58.443Z,100501.50
2022-08-19T10:45:28.461Z,100492.41
2022-08-19T10:47:58.172Z,100493.38
2022-08-19T10:50:45.985Z,100495.03
2022-08-19T10:53:15.485Z,100488.53
2022-08-19T10:56:04.991Z,100503.53
2022-08-19T10:58:34.282Z,100509.13
2022-08-19T11:01:03.462Z,100515.66
2022-08-19T11:03:32.925Z,100511.81
2022-08-19T11:06:09.693Z,100510.09
2022-08-19T11:08:39.475Z,100515.53
2022-08-19T11:11:10.300Z,100532.75
2022-08-19T11:13:41.309Z,100522.56
2022-08-19T11:16:15.189Z,100524.63
2022-08-19T11:18:50.808Z,100523.72
2022-08-19T11:21:22.034Z,100520.00
2022-08-19T11:23:54.024Z,100532.28
2022-08-19T11:26:25.467Z,100536.31
2022-08-19T11:28:56.391Z,100541.41
2022-08-19T11:31:29.495Z,100534.75
2022-08-19T11:34:01.432Z,100543.44
2022-08-19T11:36:31.423Z,100542.19
2022-08-19T11:39:01.071Z,100552.84
2022-08-19T11:41:30.284Z,100555.56
2022-08-19T11:43:59.374Z,100558.50
2022-08-19T11:46:32.265Z,100564.72
2022-08-19T11:49:02.618Z,100576.19
2022-08-19T11:51:32.340Z,100572.72
2022-08-19T11:54:02.446Z,100568.53
2022-08-19T11:56:31.716Z,100571.59
2022-08-19T11:59:02.552Z,100578.22
2022-08-19T12:01:33.233Z,100577.88
2022-08-19T12:04:02.920Z,100591.13
2022-08-19T12:06:35.794Z,100591.13
2022-08-19T12:09:10.479Z,100592.69
2022-08-19T12:11:40.795Z,100592.03
2022-08-19T12:14:14.555Z,100597.31
2022-08-19T12:16:51.400Z,100598.34
2022-08-19T12:19:22.806Z,100589.91
2022-08-19T12:21:52.744Z,100593.34
2022-08-19T12:24:24.873Z,100594.94
2022-08-19T12:26:55.301Z,100591.19
2022-08-19T12:29:31.243Z,100593.38
2022-08-19T12:32:04.089Z,100588.16
2022-08-19T12:34:34.847Z,100585.94
2022-08-19T12:37:06.345Z,100587.81
2022-08-19T12:39:44.110Z,100581.53
2022-08-19T12:42:15.560Z,100585.28
2022-08-19T12:44:46.003Z,100595.09
2022-08-19T12:47:15.720Z,100591.38
2022-08-19T12:49:53.261Z,100598.78
2022-08-19T12:52:28.888Z,100603.50
2022-08-19T12:54:59.040Z,100599.66
2022-08-19T12:57:31.819Z,100612.13
2022-08-19T13:00:05.265Z,100609.53
2022-08-19T13:02:38.812Z,100615.28
2022-08-19T13:05:10.721Z,100624.69
2022-08-19T13:07:41.972Z,100643.28
2022-08-19T13:10:14.201Z,100660.00
2022-08-19T13:12:44.591Z,100663.91
2022-08-19T13:15:19.352Z,100672.72
2022-08-19T13:17:52.229Z,100671.94
2022-08-19T13:20:22.690Z,100682.94
2022-08-19T13:22:52.254Z,100677.59
2022-08-19T13:25:21.693Z,100693.34
2022-08-19T13:27:52.766Z,100696.78
2022-08-19T13:30:41.374Z,100710.59
2022-08-19T13:33:15.530Z,100714.81
2022-08-19T13:35:52.622Z,100727.84
2022-08-19T13:38:24.097Z,100717.81
2022-08-19T13:40:55.403Z,100722.84
2022-08-19T13:43:28.056Z,100728.81
2022-08-19T13:45:57.976Z,100727.84
2022-08-19T13:48:29.521Z,100723.06
2022-08-19T13:50:59.020Z,100728.38
2022-08-19T13:53:28.154Z,100721.09
2022-08-19T13:55:57.180Z,100731.75
2022-08-19T13:58:26.313Z,100732.06
2022-08-19T14:00:55.349Z,100742.84
2022-08-19T14:03:25.451Z,100751.03
2022-08-19T14:05:54.610Z,100765.78
2022-08-19T14:08:23.552Z,100777.06
2022-08-19T14:10:52.830Z,100786.56
2022-08-19T14:13:24.056Z,100786.47
2022-08-19T14:15:54.906Z,100795.16
2022-08-19T14:18:24.032Z,100804.34
2022-08-19T14:20:58.905Z,100816.56
2022-08-19T14:23:28.299Z,100812.19
2022-08-19T14:26:09.854Z,100818.78
2022-08-19T14:28:39.060Z,100814.00
2022-08-19T14:31:08.032Z,100812.28
2022-08-19T14:33:37.320Z,100829.34
2022-08-19T14:36:07.203Z,100833.75
2022-08-19T14:38:36.728Z,100831.50
2022-08-19T14:41:13.394Z,100831.59
2022-08-19T14:43:44.059Z,100829.28
2022-08-19T14:46:14.454Z,100829.22
2022-08-19T14:48:46.263Z,100832.09
2022-08-19T14:51:26.352Z,100820.19
2022-08-19T14:53:55.671Z,100825.50
2022-08-19T14:56:28.534Z,100829.06
2022-08-19T14:59:01.018Z,100821.06
2022-08-19T15:01:30.360Z,100829.44
2022-08-19T15:03:59.372Z,100840.16
2022-08-19T15:06:30.938Z,100843.06
2022-08-19T15:09:04.153Z,100850.09
2022-08-19T15:11:34.616Z,100848.06
2022-08-19T15:14:03.870Z,100840.16
2022-08-19T15:16:33.099Z,100836.78
2022-08-19T15:19:02.529Z,100844.09
2022-08-19T15:21:32.074Z,100856.16
2022-08-19T15:24:02.895Z,100859.81
2022-08-19T15:26:34.149Z,100851.91
2022-08-19T15:29:05.386Z,100864.75
2022-08-19T15:31:38.233Z,100851.44
2022-08-19T15:34:08.772Z,100851.56
2022-08-19T15:36:38.090Z,100851.53
2022-08-19T15:39:08.292Z,100853.44
2022-08-19T15:41:38.151Z,100846.50
2022-08-19T15:44:14.158Z,100848.59
2022-08-19T15:46:46.282Z,100854.91
2022-08-19T15:49:18.099Z,100872.28
2022-08-19T15:51:50.291Z,100870.94
2022-08-19T15:54:22.870Z,100857.03
2022-08-19T15:57:11.155Z,100847.78
2022-08-19T16:00:02.554Z,100851.38
2022-08-19T16:02:53.763Z,100853.97
2022-08-19T16:05:44.843Z,100854.03
2022-08-19T16:08:14.286Z,100844.56
2022-08-19T16:10:43.355Z,100850.22
2022-08-19T16:13:12.728Z,100851.78
2022-08-19T16:15:44.080Z,100849.03
2022-08-19T16:18:13.429Z,100833.03
2022-08-19T16:20:42.587Z,100833.28
2022-08-19T16:23:11.954Z,100838.63
2022-08-19T16:25:41.119Z,100852.34
2022-08-19T16:28:11.292Z,100859.47
2022-08-19T16:30:42.257Z,100865.88
2022-08-19T16:33:22.785Z,100852.97
2022-08-19T16:35:58.442Z,100847.75
2022-08-19T16:38:34.611Z,100846.19
2022-08-19T16:41:04.013Z,100856.66
2022-08-19T16:43:33.515Z,100852.06
2022-08-19T16:46:03.329Z,100857.81
2022-08-19T16:48:33.728Z,100858.94
2022-08-19T16:51:10.144Z,100867.84
2022-08-19T16:53:42.000Z,100861.31
2022-08-19T16:56:11.729Z,100858.94
2022-08-19T16:58:40.989Z,100852.97
2022-08-19T17:01:12.246Z,100851.66
2022-08-19T17:03:42.146Z,100847.69
2022-08-19T17:06:20.462Z,100856.81
2022-08-19T17:08:51.795Z,100869.03
2022-08-19T17:11:22.981Z,100863.78
2022-08-19T17:13:52.212Z,100857.56
2022-08-19T17:16:25.595Z,100855.38
2022-08-19T17:18:57.242Z,100851.34
2022-08-19T17:21:32.896Z,100846.09
2022-08-19T17:24:03.462Z,100856.88
2022-08-19T17:26:32.944Z,100852.97
2022-08-19T17:29:02.204Z,100854.38
2022-08-19T17:31:32.748Z,100853.31
2022-08-19T17:34:03.623Z,100842.69
2022-08-19T17:36:34.850Z,100851.25
2022-08-19T17:39:06.022Z,100844.16
2022-08-19T17:41:35.896Z,100838.94
2022-08-19T17:44:05.817Z,100835.91
2022-08-19T17:46:35.044Z,100832.00
2022-08-19T17:49:04.340Z,100823.47
2022-08-19T17:51:46.878Z,100827.28
2022-08-19T17:54:19.550Z,100820.06
2022-08-19T17:56:52.204Z,100810.22
2022-08-19T17:59:21.638Z,100804.16
2022-08-19T18:01:58.321Z,100805.75
2022-08-19T18:04:30.648Z,100804.38
2022-08-19T18:07:05.275Z,100801.69
2022-08-19T18:09:41.250Z,100796.69
2022-08-19T18:12:18.874Z,100800.38
2022-08-19T18:14:48.926Z,100797.19
2022-08-19T18:17:20.342Z,100797.09
2022-08-19T18:19:50.113Z,100796.41
2022-08-19T18:22:42.933Z,100800.03
2022-08-19T18:25:27.182Z,100802.03
2022-08-19T18:28:00.081Z,100798.66
2022-08-19T18:30:35.202Z,100798.66
2022-08-19T18:33:15.362Z,100790.81
2022-08-19T18:35:47.667Z,100785.53
2022-08-19T18:38:37.680Z,100789.59
2022-08-19T18:41:27.197Z,100799.25
2022-08-19T18:44:16.398Z,100795.44
2022-08-19T18:47:03.874Z,100785.59
2022-08-19T18:49:37.928Z,100787.94
2022-08-19T18:52:07.385Z,100793.75
2022-08-19T18:54:37.737Z,100793.97
2022-08-19T18:57:09.910Z,100783.16
2022-08-19T18:59:44.109Z,100781.38
2022-08-19T19:02:16.043Z,100781.94
2022-08-19T19:04:47.216Z,100783.50
2022-08-19T19:07:21.664Z,100776.03
2022-08-19T19:09:52.304Z,100756.56
2022-08-19T19:12:22.535Z,100743.34
2022-08-19T19:14:51.808Z,100754.44
2022-08-19T19:17:27.029Z,100746.66
2022-08-19T19:19:56.372Z,100739.81
2022-08-19T19:22:26.657Z,100741.38
2022-08-19T19:24:56.391Z,100748.34
2022-08-19T19:27:25.811Z,100745.28
2022-08-19T19:29:55.492Z,100754.38
2022-08-19T19:32:29.499Z,100760.94
2022-08-19T19:35:02.119Z,100760.81
2022-08-19T19:37:31.309Z,100770.44
2022-08-19T19:40:00.413Z,100783.16
2022-08-19T19:42:29.755Z,100776.81
2022-08-19T19:44:59.547Z,100774.94
2022-08-19T19:47:29.363Z,100767.75
2022-08-19T19:50:13.903Z,100766.78
2022-08-19T19:52:49.535Z,100762.25
2022-08-19T19:55:19.488Z,100764.34
2022-08-19T19:57:50.206Z,100770.00
2022-08-19T20:00:20.661Z,100761.34
2022-08-19T20:02:51.133Z,100752.06
2022-08-19T20:05:24.515Z,100763.72
2022-08-19T20:08:13.469Z,100753.97
2022-08-19T20:10:44.932Z,100754.94
2022-08-19T20:13:16.343Z,100755.84
2022-08-19T20:15:45.607Z,100770.25
2022-08-19T20:18:15.487Z,100758.66
2022-08-19T20:20:47.188Z,100765.25
2022-08-19T20:23:16.416Z,100759.72
2022-08-19T20:25:45.503Z,100764.94
2022-08-19T20:28:14.673Z,100758.88
2022-08-19T20:30:46.727Z,100753.56
2022-08-19T20:33:17.571Z,100764.59
2022-08-19T20:35:47.265Z,100761.50
2022-08-19T20:38:16.561Z,100757.97
2022-08-19T20:40:45.701Z,100757.03
2022-08-19T20:43:15.236Z,100754.38
2022-08-19T20:45:44.366Z,100752.91
2022-08-19T20:48:14.424Z,100744.06
2022-08-19T20:50:43.589Z,100754.88
2022-08-19T20:53:18.606Z,100757.75
2022-08-19T20:55:52.307Z,100756.72
2022-08-19T20:58:24.524Z,100749.22
2022-08-19T21:00:58.750Z,100751.34
2022-08-19T21:03:30.981Z,100747.56
2022-08-19T21:06:03.625Z,100744.97
2022-08-19T21:08:35.894Z,100744.31
2022-08-19T21:11:07.467Z,100738.19
2022-08-19T21:13:36.737Z,100743.31
2022-08-19T21:16:09.177Z,100743.03
2022-08-19T21:18:39.731Z,100750.06
2022-08-19T21:21:08.991Z,100748.03
2022-08-19T21:23:38.085Z,100742.50
2022-08-19T21:26:07.233Z,100753.69
2022-08-19T21:28:36.800Z,100747.22
2022-08-19T21:31:07.959Z,100748.59
2022-08-19T21:33:37.705Z,100744.84
2022-08-19T21:36:07.343Z,100739.19
2022-08-19T21:38:36.753Z,100739.78
2022-08-19T21:41:07.207Z,100738.25
2022-08-19T21:43:38.644Z,100746.22
2022-08-19T21:46:09.794Z,100734.28
2022-08-19T21:48:42.811Z,100737.13
2022-08-19T21:51:11.865Z,100741.91
2022-08-19T21:53:40.875Z,100733.78
2022-08-19T21:56:13.790Z,100740.31
2022-08-19T21:58:43.043Z,100748.13
2022-08-19T22:01:12.883Z,100737.53
2022-08-19T22:03:42.126Z,100735.66
2022-08-19T22:06:11.897Z,100735.78
2022-08-19T22:08:42.461Z,100723.31
2022-08-19T22:11:13.521Z,100731.81
2022-08-19T22:13:42.937Z,100733.41
2022-08-19T22:16:15.268Z,100738.19
2022-08-19T22:18:45.318Z,100730.16
2022-08-19T22:21:15.918Z,100728.22
2022-08-19T22:23:59.572Z,100729.78
2022-08-19T22:26:33.434Z,100727.78
2022-08-19T22:29:02.601Z,100725.47
2022-08-19T22:31:33.885Z,100729.38
2022-08-19T22:34:04.574Z,100720.38
2022-08-19T22:36:34.080Z,100719.03
2022-08-19T22:39:04.906Z,100714.31
2022-08-19T22:41:34.856Z,100705.97
2022-08-19T22:44:04.765Z,100714.09
2022-08-19T22:46:35.102Z,100718.41
2022-08-19T22:49:04.435Z,100713.88
2022-08-19T22:51:51.705Z,100713.00
2022-08-19T22:54:20.923Z,100721.91
2022-08-19T22:56:52.649Z,100717.44
2022-08-19T22:59:21.900Z,100712.94
2022-08-19T23:01:51.120Z,100712.94
2022-08-19T23:04:20.167Z,100714.28
2022-08-19T23:06:49.268Z,100714.41
2022-08-19T23:09:18.222Z,100716.56
2022-08-19T23:11:52.723Z,100714.69
2022-08-19T23:14:21.846Z,100709.91
2022-08-19T23:16:51.531Z,100706.06
2022-08-19T23:19:21.924Z,100697.47
2022-08-19T23:21:51.101Z,100694.91
2022-08-19T23:24:20.442Z,100696.25
2022-08-19T23:27:07.812Z,100703.03
2022-08-19T23:29:55.237Z,100699.69
2022-08-19T23:32:26.373Z,100702.63
2022-08-19T23:34:57.923Z,100700.19
2022-08-19T23:37:29.054Z,100696.47
2022-08-19T23:39:58.099Z,100698.03
2022-08-19T23:42:27.252Z,100692.56
2022-08-19T23:45:05.810Z,100698.13
2022-08-19T23:47:36.090Z,100688.19
2022-08-19T23:50:10.842Z,100687.81
2022-08-19T23:53:05.667Z,100681.94
2022-08-19T23:55:38.844Z,100679.28
2022-08-19T23:58:09.078Z,100681.34
